createdAt,value
2022-12-26T05:18:19.050Z,99854.44
2022-12-26T05:21:04.311Z,99866.56
2022-12-26T05:23:49.269Z,99872.34
2022-12-26T05:26:40.541Z,99875.66
2022-12-26T05:29:07.435Z,99880.09
2022-12-26T05:31:36.569Z,99868.88
2022-12-26T05:34:10.469Z,99869.03
2022-12-26T05:36:50.679Z,99868.25
2022-12-26T05:39:17.606Z,99873.13
2022-12-26T05:41:44.165Z,99874.44
2022-12-26T05:44:11.993Z,99880.63
2022-12-26T05:46:39.276Z,99883.47
2022-12-26T05:49:06.954Z,99884.34
2022-12-26T05:51:33.871Z,99876.28
2022-12-26T05:54:00.673Z,99885.88
2022-12-26T05:56:27.427Z,99884.00
2022-12-26T05:58:59.853Z,99881.00
2022-12-26T06:01:28.724Z,99890.34
2022-12-26T06:03:58.000Z,99884.00
2022-12-26T06:06:25.781Z,99882.44
2022-12-26T06:08:54.381Z,99889.25
2022-12-26T06:11:22.279Z,99892.66
2022-12-26T06:13:48.821Z,99898.81
2022-12-26T06:16:17.517Z,99903.59
2022-12-26T06:18:44.990Z,99904.91
2022-12-26T06:21:14.687Z,99904.41
2022-12-26T06:23:42.714Z,99884.31
2022-12-26T06:26:10.464Z,99911.06
2022-12-26T06:28:37.702Z,99908.94
2022-12-26T06:31:06.370Z,99909.03
2022-12-26T06:33:32.916Z,99905.16
2022-12-26T06:36:08.334Z,99907.53
2022-12-26T06:38:34.883Z,99911.94
2022-12-26T06:41:01.852Z,99906.06
2022-12-26T06:43:28.380Z,99902.03
2022-12-26T06:45:56.618Z,99896.66
2022-12-26T06:48:23.358Z,99908.13
2022-12-26T06:51:06.793Z,99904.97
2022-12-26T06:53:34.603Z,99894.13
2022-12-26T06:56:08.641Z,99896.16
2022-12-26T06:58:35.128Z,99889.28
2022-12-26T07:01:10.672Z,99903.28
2022-12-26T07:03:37.927Z,99910.38
2022-12-26T07:06:06.935Z,99909.78
2022-12-26T07:08:34.363Z,99903.94
2022-12-26T07:11:01.015Z,99896.38
2022-12-26T07:13:27.854Z,99899.03
2022-12-26T07:15:54.319Z,99896.66
2022-12-26T07:18:20.843Z,99884.69
2022-12-26T07:20:47.916Z,99891.78
2022-12-26T07:23:14.408Z,99919.47
2022-12-26T07:25:40.872Z,99927.38
2022-12-26T07:28:07.341Z,99927.56
2022-12-26T07:30:33.904Z,99939.03
2022-12-26T07:33:00.334Z,99937.13
2022-12-26T07:35:26.864Z,99940.63
2022-12-26T07:37:53.327Z,99952.16
2022-12-26T07:40:19.906Z,99946.59
2022-12-26T07:42:46.462Z,99942.22
2022-12-26T07:45:13.266Z,99950.66
2022-12-26T07:47:39.706Z,99952.72
2022-12-26T07:50:06.830Z,99955.94
2022-12-26T07:52:33.411Z,99963.31
2022-12-26T07:55:00.299Z,99958.16
2022-12-26T07:57:48.005Z,99969.22
2022-12-26T08:00:14.379Z,99972.25
2022-12-26T08:02:41.100Z,99966.63
2022-12-26T08:05:08.175Z,99966.94
2022-12-26T08:07:34.617Z,99957.38
2022-12-26T08:10:01.943Z,99962.16
2022-12-26T08:12:28.427Z,99958.75
2022-12-26T08:14:54.981Z,99957.88
2022-12-26T08:17:21.480Z,99949.91
2022-12-26T08:19:48.027Z,99943.25
2022-12-26T08:22:14.513Z,99931.72
2022-12-26T08:24:41.318Z,99921.50
2022-12-26T08:27:07.874Z,99932.91
2022-12-26T08:29:34.595Z,99961.84
2022-12-26T08:32:01.161Z,99964.47
2022-12-26T08:34:33.634Z,99948.25
2022-12-26T08:37:00.103Z,99939.22
2022-12-26T08:39:27.660Z,99951.66
2022-12-26T08:41:54.163Z,99952.81
2022-12-26T08:44:28.668Z,99968.25
2022-12-26T08:46:55.693Z,99982.06
2022-12-26T08:49:22.158Z,99990.72
2022-12-26T08:51:48.617Z,99981.28
2022-12-26T08:54:15.150Z,99994.53
2022-12-26T08:56:41.729Z,100013.03
2022-12-26T08:59:08.247Z,100010.16
2022-12-26T09:01:35.017Z,100012.97
2022-12-26T09:04:03.470Z,100019.06
2022-12-26T09:06:33.366Z,100037.38
2022-12-26T09:09:00.555Z,100024.03
2022-12-26T09:11:28.760Z,100023.53
2022-12-26T09:13:57.701Z,100030.16
2022-12-26T09:16:27.037Z,100034.25
2022-12-26T09:18:56.656Z,100036.25
2022-12-26T09:21:23.631Z,100046.38
2022-12-26T09:23:50.116Z,100058.38
2022-12-26T09:26:20.905Z,100062.97
2022-12-26T09:28:48.116Z,100067.38
2022-12-26T09:31:20.749Z,100057.63
2022-12-26T09:33:48.404Z,100049.63
2022-12-26T09:36:21.280Z,100053.75
2022-12-26T09:38:48.661Z,100057.03
2022-12-26T09:41:46.054Z,100046.19
2022-12-26T09:44:34.347Z,100042.13
2022-12-26T09:47:25.139Z,100032.63
2022-12-26T09:50:09.322Z,100031.84
2022-12-26T09:52:45.987Z,100035.53
2022-12-26T09:55:39.947Z,100059.97
2022-12-26T09:58:15.494Z,100062.28
2022-12-26T10:01:05.645Z,100060.56
2022-12-26T10:03:41.199Z,100058.34
2022-12-26T10:06:13.887Z,100053.91
2022-12-26T10:09:05.588Z,100067.59
2022-12-26T10:11:57.034Z,100052.06
2022-12-26T10:14:48.526Z,100044.63
2022-12-26T10:17:25.012Z,100033.81
2022-12-26T10:20:04.058Z,100043.69
2022-12-26T10:22:48.945Z,100035.22
2022-12-26T10:25:20.628Z,100034.69
2022-12-26T10:27:50.337Z,100034.13
2022-12-26T10:30:27.390Z,100059.59
2022-12-26T10:33:03.299Z,100061.78
2022-12-26T10:35:35.283Z,100066.75
2022-12-26T10:38:10.474Z,100064.94
2022-12-26T10:40:42.085Z,100059.69
2022-12-26T10:43:20.767Z,100065.44
2022-12-26T10:46:06.133Z,100075.06
2022-12-26T10:48:32.934Z,100071.94
2022-12-26T10:50:59.593Z,100071.47
2022-12-26T10:53:26.164Z,100087.47
2022-12-26T10:55:52.768Z,100077.50
2022-12-26T10:58:23.058Z,100075.88
2022-12-26T11:00:49.933Z,100080.53
2022-12-26T11:03:19.540Z,100088.84
2022-12-26T11:06:07.404Z,100097.94
2022-12-26T11:08:43.936Z,100091.06
2022-12-26T11:11:26.746Z,100092.56
2022-12-26T11:14:03.291Z,100103.13
2022-12-26T11:16:33.800Z,100098.88
2022-12-26T11:19:01.568Z,100090.66
2022-12-26T11:21:30.144Z,100091.38
2022-12-26T11:24:19.612Z,100092.47
2022-12-26T11:26:46.442Z,100099.47
2022-12-26T11:29:16.000Z,100100.94
2022-12-26T11:32:00.602Z,100092.75
2022-12-26T11:34:34.333Z,100094.06
2022-12-26T11:37:01.586Z,100087.63
2022-12-26T11:39:32.985Z,100092.69
2022-12-26T11:41:59.909Z,100101.66
2022-12-26T11:44:33.864Z,100098.09
2022-12-26T11:47:01.833Z,100089.75
2022-12-26T11:49:33.575Z,100087.22
2022-12-26T11:52:03.471Z,100088.53
2022-12-26T11:54:36.290Z,100075.34
2022-12-26T11:57:22.306Z,100084.75
2022-12-26T11:59:51.642Z,100072.03
2022-12-26T12:02:25.527Z,100072.53
2022-12-26T12:04:55.465Z,100074.44
2022-12-26T12:07:47.499Z,100069.09
2022-12-26T12:10:48.692Z,100076.97
2022-12-26T12:13:29.380Z,100068.78
2022-12-26T12:16:14.201Z,100062.69
2022-12-26T12:19:17.867Z,100063.84
2022-12-26T12:21:49.774Z,100054.38
2022-12-26T12:24:43.755Z,100048.13
2022-12-26T12:27:25.623Z,100041.47
2022-12-26T12:30:37.453Z,100039.75
2022-12-26T12:33:07.759Z,100037.06
2022-12-26T12:36:06.928Z,100035.66
2022-12-26T12:38:48.328Z,100027.50
2022-12-26T12:41:26.485Z,100037.22
2022-12-26T12:44:19.494Z,100034.44
2022-12-26T12:47:10.652Z,100045.97
2022-12-26T12:50:12.469Z,100044.75
2022-12-26T12:52:52.868Z,100037.50
2022-12-26T12:55:44.700Z,100045.03
2022-12-26T12:58:36.031Z,100039.91
2022-12-26T13:01:11.018Z,100033.13
2022-12-26T13:03:50.121Z,100027.97
2022-12-26T13:06:25.518Z,100023.88
2022-12-26T13:09:13.362Z,100023.13
2022-12-26T13:11:51.956Z,100029.22
2022-12-26T13:14:30.886Z,100035.75
2022-12-26T13:17:06.491Z,100024.56
2022-12-26T13:19:48.641Z,100023.00
2022-12-26T13:22:25.783Z,100017.34
2022-12-26T13:25:00.925Z,100006.22
2022-12-26T13:27:33.825Z,100017.38
2022-12-26T13:30:00.362Z,100016.03
2022-12-26T13:32:28.071Z,100012.63
2022-12-26T13:35:00.701Z,100010.09
2022-12-26T13:37:39.266Z,100007.38
2022-12-26T13:40:21.349Z,100010.41
2022-12-26T13:43:15.214Z,100006.00
2022-12-26T13:45:41.695Z,100000.88
2022-12-26T13:48:17.103Z,100010.53
2022-12-26T13:50:55.318Z,100020.53
2022-12-26T13:53:25.718Z,100040.91
2022-12-26T13:55:54.693Z,100042.56
2022-12-26T13:58:49.345Z,100032.69
2022-12-26T14:01:41.232Z,100016.38
2022-12-26T14:04:35.862Z,100012.47
2022-12-26T14:07:05.347Z,100005.63
2022-12-26T14:09:44.028Z,100003.06
2022-12-26T14:12:35.234Z,99983.13
2022-12-26T14:15:20.256Z,100009.53
2022-12-26T14:18:05.299Z,100022.44
2022-12-26T14:20:44.736Z,100035.41
2022-12-26T14:23:39.098Z,100038.78
2022-12-26T14:26:39.684Z,100029.66
2022-12-26T14:29:28.404Z,100025.00
2022-12-26T14:32:16.952Z,100039.00
2022-12-26T14:34:53.831Z,100043.00
2022-12-26T14:37:55.124Z,100055.63
2022-12-26T14:40:58.909Z,100042.44
2022-12-26T14:43:30.258Z,100047.00
2022-12-26T14:45:58.349Z,100045.44
2022-12-26T14:48:29.646Z,100044.38
2022-12-26T14:51:23.488Z,100036.50
2022-12-26T14:54:22.151Z,100038.00
2022-12-26T14:56:51.161Z,100040.09
2022-12-26T14:59:29.151Z,100051.63
2022-12-26T15:02:02.020Z,100050.25
2022-12-26T15:04:46.869Z,100052.16
2022-12-26T15:07:32.184Z,100053.97
2022-12-26T15:10:26.629Z,100054.50
2022-12-26T15:13:25.631Z,100063.50
2022-12-26T15:16:12.078Z,100078.69
2022-12-26T15:18:44.824Z,100082.22
2022-12-26T15:21:36.002Z,100070.44
2022-12-26T15:25:08.688Z,100059.00
2022-12-26T15:27:29.650Z,100053.19
2022-12-26T15:30:28.376Z,100056.53
2022-12-26T15:33:05.291Z,100042.91
2022-12-26T15:35:49.098Z,100061.03
2022-12-26T15:38:21.536Z,100060.50
2022-12-26T15:41:12.854Z,100053.41
2022-12-26T15:43:56.831Z,100062.03
2022-12-26T15:46:46.681Z,100059.63
2022-12-26T15:49:33.330Z,100051.13
2022-12-26T15:52:21.226Z,100042.00
2022-12-26T15:55:09.416Z,100038.44
2022-12-26T15:57:59.130Z,100032.00
2022-12-26T16:00:29.575Z,100028.63
2022-12-26T16:03:33.825Z,100025.47
2022-12-26T16:06:38.123Z,100040.09
2022-12-26T16:09:27.417Z,100054.47
2022-12-26T16:11:56.673Z,100061.06
2022-12-26T16:14:33.571Z,100083.47
2022-12-26T16:17:18.990Z,100079.16
2022-12-26T16:19:48.333Z,100084.72
2022-12-26T16:22:46.977Z,100095.19
2022-12-26T16:25:18.303Z,100106.25
2022-12-26T16:27:46.308Z,100107.31
2022-12-26T16:30:25.139Z,100120.75
2022-12-26T16:32:52.758Z,100122.94
2022-12-26T16:35:31.629Z,100127.72
2022-12-26T16:38:00.214Z,100124.34
2022-12-26T16:40:38.583Z,100147.78
2022-12-26T16:43:14.206Z,100144.13
2022-12-26T16:45:41.654Z,100167.75
2022-12-26T16:48:12.615Z,100171.06
2022-12-26T16:50:47.686Z,100163.06
2022-12-26T16:53:17.914Z,100160.19
2022-12-26T16:55:48.152Z,100148.19
2022-12-26T16:58:24.834Z,100153.13
2022-12-26T17:01:04.885Z,100158.13
2022-12-26T17:03:49.510Z,100166.97
2022-12-26T17:06:24.802Z,100170.00
2022-12-26T17:08:52.509Z,100157.50
2022-12-26T17:11:27.786Z,100167.28
2022-12-26T17:13:55.867Z,100145.63
2022-12-26T17:16:28.926Z,100133.75
2022-12-26T17:19:11.588Z,100113.34
2022-12-26T17:21:38.124Z,100148.47
2022-12-26T17:24:25.842Z,100162.63
2022-12-26T17:27:08.055Z,100153.47
2022-12-26T17:29:37.338Z,100150.97
2022-12-26T17:32:08.702Z,100151.78
2022-12-26T17:34:38.210Z,100135.34
2022-12-26T17:37:20.660Z,100110.03
2022-12-26T17:40:13.547Z,100122.44
2022-12-26T17:42:49.294Z,100146.19
2022-12-26T17:45:18.431Z,100137.09
2022-12-26T17:47:45.133Z,100140.44
2022-12-26T17:50:12.191Z,100147.84
2022-12-26T17:52:38.989Z,100166.66
2022-12-26T17:55:14.217Z,100179.88
2022-12-26T17:57:40.705Z,100183.03
2022-12-26T18:00:18.421Z,100178.13
2022-12-26T18:02:45.052Z,100201.25
2022-12-26T18:05:11.670Z,100204.59
2022-12-26T18:07:38.244Z,100212.47
2022-12-26T18:10:05.547Z,100215.47
2022-12-26T18:12:32.537Z,100218.50
2022-12-26T18:15:02.130Z,100228.16
2022-12-26T18:17:32.892Z,100229.84
2022-12-26T18:20:00.399Z,100231.53
2022-12-26T18:22:26.868Z,100238.53
2022-12-26T18:24:53.399Z,100252.25
2022-12-26T18:27:24.977Z,100268.44
2022-12-26T18:29:51.448Z,100282.06
2022-12-26T18:32:28.117Z,100290.78
2022-12-26T18:34:55.500Z,100292.22
2022-12-26T18:37:24.489Z,100289.78
2022-12-26T18:39:51.789Z,100308.53
2022-12-26T18:42:18.574Z,100314.16
2022-12-26T18:44:45.119Z,100323.25
2022-12-26T18:47:19.441Z,100332.31
2022-12-26T18:49:46.429Z,100332.66
2022-12-26T18:52:17.708Z,100340.47
2022-12-26T18:54:44.954Z,100334.47
2022-12-26T18:57:17.727Z,100328.22
2022-12-26T18:59:44.489Z,100330.75
2022-12-26T19:02:18.250Z,100330.47
2022-12-26T19:04:46.456Z,100318.44
2022-12-26T19:07:12.997Z,100322.06
2022-12-26T19:09:43.986Z,100323.00
2022-12-26T19:12:10.934Z,100331.75
2022-12-26T19:14:37.644Z,100339.97
2022-12-26T19:17:04.097Z,100353.81
2022-12-26T19:19:31.644Z,100353.94
2022-12-26T19:21:58.130Z,100348.22
2022-12-26T19:24:24.728Z,100356.50
2022-12-26T19:26:51.223Z,100372.41
2022-12-26T19:29:17.732Z,100375.44
2022-12-26T19:31:44.326Z,100380.41
2022-12-26T19:34:10.885Z,100388.56
2022-12-26T19:36:37.511Z,100395.50
2022-12-26T19:39:04.058Z,100401.50
2022-12-26T19:41:30.631Z,100408.09
2022-12-26T19:44:00.225Z,100415.94
2022-12-26T19:46:27.780Z,100422.00
2022-12-26T19:48:55.003Z,100432.16
2022-12-26T19:51:22.388Z,100445.19
2022-12-26T19:53:48.976Z,100442.47
2022-12-26T19:56:21.518Z,100450.81
2022-12-26T19:58:54.545Z,100455.63
2022-12-26T20:01:29.236Z,100463.44
2022-12-26T20:03:57.861Z,100456.47
2022-12-26T20:06:26.613Z,100458.38
2022-12-26T20:08:57.963Z,100461.03
2022-12-26T20:11:28.703Z,100459.53
2022-12-26T20:13:55.239Z,100467.38
2022-12-26T20:17:03.325Z,100467.25
2022-12-26T20:19:11.167Z,100479.38
2022-12-26T20:21:38.450Z,100479.38
2022-12-26T20:24:05.470Z,100483.66
2022-12-26T20:26:32.261Z,100492.59
2022-12-26T20:29:03.431Z,100510.16
2022-12-26T20:31:32.282Z,100515.63
2022-12-26T20:33:59.307Z,100525.72
2022-12-26T20:36:28.864Z,100534.25
2022-12-26T20:39:00.436Z,100537.75
2022-12-26T20:41:28.179Z,100544.78
2022-12-26T20:43:55.308Z,100568.66
2022-12-26T20:46:24.630Z,100564.19
2022-12-26T20:48:51.945Z,100571.44
2022-12-26T20:51:23.192Z,100583.72
2022-12-26T20:53:50.803Z,100594.28
2022-12-26T20:56:17.379Z,100593.19
2022-12-26T20:58:43.915Z,100597.53
2022-12-26T21:01:16.249Z,100599.38
2022-12-26T21:03:42.904Z,100610.88
2022-12-26T21:06:12.169Z,100610.88
2022-12-26T21:08:40.199Z,100622.25
2022-12-26T21:11:25.493Z,100617.81
2022-12-26T21:13:56.379Z,100621.34
2022-12-26T21:16:32.123Z,100631.03
2022-12-26T21:18:59.421Z,100643.25
2022-12-26T21:21:32.271Z,100638.72
2022-12-26T21:24:01.308Z,100644.97
2022-12-26T21:26:28.691Z,100645.06
2022-12-26T21:29:00.050Z,100658.06
2022-12-26T21:31:27.688Z,100664.25
2022-12-26T21:33:59.021Z,100683.38
2022-12-26T21:36:26.707Z,100685.16
2022-12-26T21:38:53.986Z,100689.47
2022-12-26T21:41:21.222Z,100698.13
2022-12-26T21:43:47.989Z,100698.19
2022-12-26T21:46:20.050Z,100706.88
2022-12-26T21:48:50.281Z,100725.16
2022-12-26T21:51:18.183Z,100717.38
2022-12-26T21:53:45.311Z,100725.19
2022-12-26T21:56:13.478Z,100721.72
2022-12-26T21:58:59.399Z,100734.75
2022-12-26T22:01:27.271Z,100742.59
2022-12-26T22:04:12.591Z,100745.22
2022-12-26T22:06:40.219Z,100752.19
2022-12-26T22:09:07.667Z,100759.09
2022-12-26T22:11:52.849Z,100765.19
2022-12-26T22:14:19.449Z,100780.00
2022-12-26T22:16:46.198Z,100790.31
2022-12-26T22:19:12.689Z,100793.94
2022-12-26T22:21:39.199Z,100793.09
2022-12-26T22:24:06.007Z,100793.03
2022-12-26T22:26:32.559Z,100803.56
2022-12-26T22:28:59.189Z,100815.69
2022-12-26T22:31:32.285Z,100817.38
2022-12-26T22:34:05.559Z,100821.69
2022-12-26T22:36:33.125Z,100834.84
2022-12-26T22:39:00.225Z,100839.16
2022-12-26T22:41:27.753Z,100837.44
2022-12-26T22:43:55.133Z,100837.47
2022-12-26T22:46:21.943Z,100842.69
2022-12-26T22:48:48.448Z,100844.38
2022-12-26T22:51:20.279Z,100858.88
2022-12-26T22:53:47.108Z,100858.16
2022-12-26T22:56:14.627Z,100861.66
2022-12-26T22:58:41.282Z,100866.72
